Overview Statistics Trail Chart Weather Telemetry Raw packets
 

This is the latest recevied weather packets stored in our database for station/object KO6HRZ. If no packets are shown the sender has not sent any weather packets the latest 10 day(s).

<< 13 14 15 16 17 18 19 >>
Time Temp. Humidity Pressure Rain* Wind** Luminosity Snow
1788462648 26.11° C 56% 1012.3 hPa 0 mm - 399 W/m² -
1788462047 27.78° C 55% 1012.3 hPa 0 mm - 971 W/m² -
1788461444 26.67° C 57% 1012.7 hPa 0 mm - 611 W/m² -
1788460841 25.56° C 59% 1012.8 hPa 0 mm - 527 W/m² -
1788460235 25° C 62% 1012.8 hPa 0 mm - 725 W/m² -
1788459630 25° C 61% 1012.8 hPa 0 mm - 364 W/m² -
1788459029 24.44° C 62% 1012.9 hPa 0 mm - 654 W/m² -
1788458424 25° C 62% 1013 hPa 0 mm - 591 W/m² -
1788457822 23.89° C 64% 1013.1 hPa 0 mm - 531 W/m² -
1788457217 23.33° C 65% 1013 hPa 0 mm - 512 W/m² -
1788456615 22.22° C 67% 1013.2 hPa 0 mm - 457 W/m² -
1788456010 21.67° C 71% 1013.3 hPa 0 mm - 583 W/m² -
1788455406 21.11° C 72% 1013.3 hPa 0 mm - 313 W/m² -
1788454806 20.56° C 73% 1013.2 hPa 0 mm - 277 W/m² -
1788454200 20.56° C 74% 1013.4 hPa 0 mm - 224 W/m² -
1788453595 20.56° C 75% 1013.4 hPa 0 mm - 214 W/m² -
1788452992 20° C 76% 1013.3 hPa 0 mm - 207 W/m² -
1788452390 20° C 75% 1013.4 hPa 0 mm - 201 W/m² -
1788451802 20° C 76% 1013.6 hPa 0 mm - 204 W/m² -
1788451185 20° C 76% 1013.8 hPa 0 mm - 368 W/m² -
1788450581 18.89° C 80% 1013.5 hPa 0 mm - 266 W/m² -
1788449978 17.78° C 84% 1013.8 hPa 0 mm - 163 W/m² -
1788449375 17.22° C 85% 1013.8 hPa 0 mm - 76 W/m² -
1788448772 16.11° C 88% 1013.6 hPa 0 mm - 57 W/m² -
1788448167 15.56° C 90% 1013.9 hPa 0 mm - 51 W/m² -

* Rain latest hour (hover to see other rain measurements)
** Current wind speed in m/s (hover to see current wind gust speed)